Time;durP1;ratioP1;P1;durP2;ratioP2;P2;SDS_P1;SDS_P2;PMS_P1;PMS_P2;Temp;Humidity;BMP_temperature;BMP_pressure;BME280_temperature;BME280_humidity;BME280_pressure;Samples;Min_cycle;Max_cycle;Signal;HPM_P1;HPM_P2
2023/11/03 00:00:49;;;;;;;55.83;2.53;;;;;;;;;;5050345;28;20488;-72
2023/11/03 00:03:17;;;;;;;56.17;2.30;;;;;;;;;;5050597;28;20492;-72
2023/11/03 00:05:44;;;;;;;55.97;2.50;;;;;;;;;;5050486;28;20476;-72
2023/11/03 00:08:11;;;;;;;56.07;2.50;;;;;;;;;;5050807;28;20454;-72
2023/11/03 00:10:39;;;;;;;56.20;2.50;;;;;;;;;;5050899;28;20492;-72
2023/11/03 00:13:07;;;;;;;56.13;2.53;;;;;;;;;;5050614;28;20445;-73
2023/11/03 00:15:34;;;;;;;56.30;2.80;;;;;;;;;;5050811;28;20454;-72
2023/11/03 00:18:01;;;;;;;55.90;2.63;;;;;;;;;;5050592;28;20570;-72
2023/11/03 00:20:28;;;;;;;56.00;2.33;;;;;;;;;;5050647;28;20472;-71
2023/11/03 00:22:56;;;;;;;56.03;2.50;;;;;;;;;;5050589;28;20445;-72
2023/11/03 00:25:23;;;;;;;56.50;2.80;;;;;;;;;;5050262;28;20654;-71
2023/11/03 00:27:52;;;;;;;56.40;2.87;;;;;;;;;;5050595;28;20542;-72
2023/11/03 00:30:20;;;;;;;56.20;2.70;;;;;;;;;;5050440;28;20472;-72
2023/11/03 00:32:47;;;;;;;56.13;2.73;;;;;;;;;;5050297;28;20461;-73
2023/11/03 00:35:14;;;;;;;56.33;2.87;;;;;;;;;;5050170;28;21035;-71
2023/11/03 00:37:41;;;;;;;56.20;2.90;;;;;;;;;;5050419;28;20452;-72
2023/11/03 00:40:13;;;;;;;56.57;3.03;;;;;;;;;;5050276;28;20566;-73
2023/11/03 00:42:40;;;;;;;56.20;2.70;;;;;;;;;;5050253;28;20476;-72
2023/11/03 00:45:09;;;;;;;56.47;2.87;;;;;;;;;;5049941;28;20484;-72
2023/11/03 00:47:36;;;;;;;56.60;2.80;;;;;;;;;;5050663;28;20460;-72
2023/11/03 00:50:03;;;;;;;56.30;2.77;;;;;;;;;;5050260;28;20468;-72
2023/11/03 00:52:30;;;;;;;56.03;2.60;;;;;;;;;;5050142;28;20510;-73
2023/11/03 00:54:57;;;;;;;56.27;2.70;;;;;;;;;;5049997;28;20921;-72
2023/11/03 00:57:24;;;;;;;56.50;3.13;;;;;;;;;;5051875;28;20451;-72
2023/11/03 00:59:52;;;;;;;56.30;2.60;;;;;;;;;;5053761;28;20476;-73
2023/11/03 01:02:22;;;;;;;56.47;3.10;;;;;;;;;;5053974;28;20463;-72
2023/11/03 01:04:49;;;;;;;56.40;2.80;;;;;;;;;;5053934;28;20855;-72
2023/11/03 01:07:16;;;;;;;56.10;2.60;;;;;;;;;;5054013;28;20445;-73
2023/11/03 01:09:43;;;;;;;56.60;2.80;;;;;;;;;;5053842;28;20475;-72
2023/11/03 01:12:11;;;;;;;56.40;2.60;;;;;;;;;;5053400;28;20452;-72
2023/11/03 01:14:38;;;;;;;56.17;2.70;;;;;;;;;;5053638;28;20522;-72
2023/11/03 01:17:05;;;;;;;56.27;2.50;;;;;;;;;;5053410;28;20459;-72
2023/11/03 01:19:34;;;;;;;56.43;2.67;;;;;;;;;;5053446;28;20444;-72
2023/11/03 01:22:03;;;;;;;56.13;2.60;;;;;;;;;;5053525;28;20459;-71
2023/11/03 01:24:31;;;;;;;56.27;2.83;;;;;;;;;;5053253;28;20508;-72
2023/11/03 01:26:59;;;;;;;56.33;2.80;;;;;;;;;;5053262;28;20484;-72
2023/11/03 01:29:26;;;;;;;56.23;2.90;;;;;;;;;;5053186;28;20460;-72
2023/11/03 01:31:53;;;;;;;56.27;2.70;;;;;;;;;;5053043;28;20454;-72
2023/11/03 01:34:20;;;;;;;56.17;2.50;;;;;;;;;;5053355;28;20452;-72
2023/11/03 01:36:49;;;;;;;55.97;2.73;;;;;;;;;;5053191;28;20448;-72
2023/11/03 01:39:16;;;;;;;56.20;2.73;;;;;;;;;;5053020;28;20456;-71
2023/11/03 01:41:44;;;;;;;56.27;2.50;;;;;;;;;;5052851;28;20511;-72
2023/11/03 01:44:11;;;;;;;56.17;2.60;;;;;;;;;;5053193;28;20499;-73
2023/11/03 01:46:39;;;;;;;56.40;2.50;;;;;;;;;;5053073;28;20452;-72
2023/11/03 01:49:06;;;;;;;56.27;2.70;;;;;;;;;;5053200;28;20452;-72
2023/11/03 01:51:34;;;;;;;56.30;2.83;;;;;;;;;;5052775;28;20470;-72
2023/11/03 01:54:03;;;;;;;56.20;2.60;;;;;;;;;;5052884;28;20536;-72
2023/11/03 01:56:31;;;;;;;55.97;2.70;;;;;;;;;;5052846;28;20448;-72
2023/11/03 01:58:58;;;;;;;56.20;2.80;;;;;;;;;;5053190;28;20445;-72
2023/11/03 02:01:27;;;;;;;56.07;2.43;;;;;;;;;;5052678;28;20472;-72
2023/11/03 02:03:54;;;;;;;56.37;2.70;;;;;;;;;;5052853;28;20487;-72
2023/11/03 02:06:21;;;;;;;56.30;2.90;;;;;;;;;;5053053;28;20484;-72
2023/11/03 02:08:49;;;;;;;56.20;2.43;;;;;;;;;;5051681;28;20482;-72
2023/11/03 02:11:25;;;;;;;56.10;2.60;;;;;;;;;;5052282;28;20534;-72
2023/11/03 02:13:52;;;;;;;56.37;2.70;;;;;;;;;;5052693;28;20455;-72
2023/11/03 02:16:19;;;;;;;56.27;2.70;;;;;;;;;;5051636;28;20937;-72
2023/11/03 02:18:46;;;;;;;56.20;2.53;;;;;;;;;;5052601;28;20464;-72
2023/11/03 02:21:14;;;;;;;56.00;2.50;;;;;;;;;;5052466;28;20474;-72
2023/11/03 02:23:43;;;;;;;56.03;2.60;;;;;;;;;;5052668;28;20456;-72
2023/11/03 02:26:10;;;;;;;56.07;2.47;;;;;;;;;;5052548;28;20454;-72
2023/11/03 02:28:37;;;;;;;56.23;2.77;;;;;;;;;;5053133;28;20909;-71
2023/11/03 02:31:05;;;;;;;56.20;2.57;;;;;;;;;;5052944;28;20479;-72
2023/11/03 02:33:32;;;;;;;56.17;2.50;;;;;;;;;;5052833;28;20820;-71
2023/11/03 02:35:59;;;;;;;56.23;2.50;;;;;;;;;;5052759;28;20478;-72
2023/11/03 02:38:26;;;;;;;55.83;2.27;;;;;;;;;;5052625;28;20817;-72
2023/11/03 02:40:55;;;;;;;56.30;2.80;;;;;;;;;;5052444;28;20475;-72
2023/11/03 02:43:22;;;;;;;56.17;2.57;;;;;;;;;;5051898;28;20452;-72
2023/11/03 02:45:50;;;;;;;56.37;2.93;;;;;;;;;;5051873;28;20488;-72
2023/11/03 02:48:17;;;;;;;56.13;2.60;;;;;;;;;;5051785;28;20820;-72
2023/11/03 02:50:44;;;;;;;56.30;2.60;;;;;;;;;;5052211;28;20469;-72
2023/11/03 02:53:12;;;;;;;56.30;3.00;;;;;;;;;;5052624;28;20459;-72
2023/11/03 02:55:39;;;;;;;56.40;2.90;;;;;;;;;;5052139;28;20452;-72
2023/11/03 02:58:07;;;;;;;56.40;2.75;;;;;;;;;;5051597;28;20455;-73
2023/11/03 03:00:35;;;;;;;56.27;2.37;;;;;;;;;;5051392;28;20710;-73
2023/11/03 03:03:03;;;;;;;56.17;2.50;;;;;;;;;;5051724;28;20494;-72
2023/11/03 03:05:30;;;;;;;56.37;2.83;;;;;;;;;;5051498;28;20495;-72
2023/11/03 03:07:57;;;;;;;56.30;2.63;;;;;;;;;;5051626;28;20466;-72
2023/11/03 03:10:24;;;;;;;56.20;2.73;;;;;;;;;;5051223;28;21103;-72
2023/11/03 03:12:51;;;;;;;56.30;2.50;;;;;;;;;;5051445;28;20444;-72
2023/11/03 03:15:20;;;;;;;56.60;2.60;;;;;;;;;;5051090;28;20449;-72
2023/11/03 03:17:47;;;;;;;56.10;2.50;;;;;;;;;;5051463;28;20452;-72
2023/11/03 03:20:14;;;;;;;56.07;2.60;;;;;;;;;;5050650;28;20840;-72
2023/11/03 03:22:41;;;;;;;56.20;2.30;;;;;;;;;;5051588;28;20455;-72
2023/11/03 03:25:09;;;;;;;56.43;2.87;;;;;;;;;;5050835;28;20487;-72
2023/11/03 03:27:36;;;;;;;55.87;2.40;;;;;;;;;;5051130;28;20450;-72
2023/11/03 03:30:03;;;;;;;56.27;2.60;;;;;;;;;;5051067;28;20987;-72
2023/11/03 03:32:32;;;;;;;56.30;2.70;;;;;;;;;;5051062;28;20561;-72
2023/11/03 03:34:59;;;;;;;56.40;3.03;;;;;;;;;;5051016;28;20953;-73
2023/11/03 03:37:26;;;;;;;56.17;2.33;;;;;;;;;;5050929;28;20798;-72
2023/11/03 03:39:53;;;;;;;56.17;2.60;;;;;;;;;;5051251;28;20483;-72
2023/11/03 03:42:20;;;;;;;55.97;2.40;;;;;;;;;;5050835;28;20459;-72
2023/11/03 03:44:47;;;;;;;55.97;2.43;;;;;;;;;;5051077;28;20845;-72
2023/11/03 03:47:14;;;;;;;56.17;2.50;;;;;;;;;;5050939;28;20448;-72
2023/11/03 03:49:43;;;;;;;55.87;2.70;;;;;;;;;;5050696;28;20460;-72
2023/11/03 03:52:10;;;;;;;56.67;3.40;;;;;;;;;;5050573;28;20457;-73
2023/11/03 03:54:37;;;;;;;56.40;2.37;;;;;;;;;;5050756;28;20445;-73
2023/11/03 03:57:05;;;;;;;56.10;2.50;;;;;;;;;;5050863;28;20458;-73
2023/11/03 03:59:32;;;;;;;56.27;2.80;;;;;;;;;;5050691;28;20456;-72
2023/11/03 04:01:59;;;;;;;56.40;2.77;;;;;;;;;;5050494;28;20466;-72
2023/11/03 04:04:26;;;;;;;56.03;2.17;;;;;;;;;;5050673;28;20454;-72
2023/11/03 04:06:55;;;;;;;56.00;2.60;;;;;;;;;;5050626;28;20463;-72
2023/11/03 04:09:23;;;;;;;56.23;2.80;;;;;;;;;;5050832;28;20807;-72
2023/11/03 04:11:50;;;;;;;56.60;3.13;;;;;;;;;;5050681;28;20821;-73
2023/11/03 04:14:17;;;;;;;56.40;2.60;;;;;;;;;;5050749;28;20447;-72
2023/11/03 04:16:44;;;;;;;56.03;2.63;;;;;;;;;;5050484;28;20484;-72
2023/11/03 04:19:11;;;;;;;55.97;2.60;;;;;;;;;;5050662;28;20451;-72
2023/11/03 04:21:38;;;;;;;56.07;2.50;;;;;;;;;;5050398;28;20898;-72
2023/11/03 04:24:07;;;;;;;56.13;2.37;;;;;;;;;;5050881;28;20444;-72
2023/11/03 04:26:34;;;;;;;56.33;3.03;;;;;;;;;;5050537;28;20485;-72
2023/11/03 04:29:01;;;;;;;56.03;2.70;;;;;;;;;;5050657;28;20539;-72
2023/11/03 04:31:28;;;;;;;56.10;2.33;;;;;;;;;;5050449;28;20479;-72
2023/11/03 04:33:56;;;;;;;56.37;2.80;;;;;;;;;;5054566;28;20455;-72
2023/11/03 04:36:23;;;;;;;56.23;2.50;;;;;;;;;;5054200;28;21047;-73
2023/11/03 04:38:50;;;;;;;56.07;2.30;;;;;;;;;;5054449;28;20872;-73
2023/11/03 04:41:18;;;;;;;56.10;2.70;;;;;;;;;;5053898;28;20472;-72
2023/11/03 04:43:46;;;;;;;56.07;2.50;;;;;;;;;;5054345;28;20846;-72
2023/11/03 04:46:13;;;;;;;56.60;2.83;;;;;;;;;;5054325;28;20526;-72
2023/11/03 04:48:40;;;;;;;56.07;2.70;;;;;;;;;;5054444;28;20444;-72
2023/11/03 04:51:08;;;;;;;56.27;2.90;;;;;;;;;;5054160;28;20475;-73
2023/11/03 04:53:35;;;;;;;56.10;2.43;;;;;;;;;;5054001;28;20452;-72
2023/11/03 04:56:02;;;;;;;56.20;2.70;;;;;;;;;;5053983;28;20794;-72
2023/11/03 04:58:31;;;;;;;56.17;2.70;;;;;;;;;;5053846;28;20460;-72
2023/11/03 05:00:58;;;;;;;56.23;2.97;;;;;;;;;;5053725;28;20850;-72
2023/11/03 05:03:25;;;;;;;56.33;2.73;;;;;;;;;;5054127;28;20445;-72
2023/11/03 05:05:52;;;;;;;56.17;2.60;;;;;;;;;;5053596;28;21019;-73
2023/11/03 05:08:20;;;;;;;56.17;2.63;;;;;;;;;;5053583;28;20529;-72
2023/11/03 05:10:47;;;;;;;56.17;2.60;;;;;;;;;;5053559;28;20475;-73
2023/11/03 05:13:15;;;;;;;56.27;2.97;;;;;;;;;;5053606;28;20782;-72
2023/11/03 05:15:44;;;;;;;56.30;2.67;;;;;;;;;;5045408;28;20536;-73
2023/11/03 05:18:12;;;;;;;55.77;2.50;;;;;;;;;;5053355;28;20448;-72
2023/11/03 05:20:40;;;;;;;56.20;3.17;;;;;;;;;;5053425;28;20552;-73
2023/11/03 05:23:07;;;;;;;55.73;2.50;;;;;;;;;;5053110;28;20983;-72
2023/11/03 05:25:34;;;;;;;56.07;2.50;;;;;;;;;;5053085;28;20519;-72
2023/11/03 05:28:01;;;;;;;56.07;2.30;;;;;;;;;;5053356;28;20467;-73
2023/11/03 05:30:28;;;;;;;55.90;2.47;;;;;;;;;;5053409;28;20472;-72
2023/11/03 05:32:56;;;;;;;55.90;2.60;;;;;;;;;;5053109;28;20543;-72
2023/11/03 05:35:24;;;;;;;55.93;2.40;;;;;;;;;;5053064;28;20437;-72
2023/11/03 05:37:51;;;;;;;56.20;2.83;;;;;;;;;;5053515;28;20509;-72
2023/11/03 05:40:18;;;;;;;56.07;2.90;;;;;;;;;;5052934;28;20472;-73
2023/11/03 05:42:45;;;;;;;56.17;3.10;;;;;;;;;;5053106;28;20452;-73
2023/11/03 05:45:13;;;;;;;55.87;2.60;;;;;;;;;;5053182;28;20486;-73
2023/11/03 05:47:40;;;;;;;56.13;2.83;;;;;;;;;;5052722;28;20941;-73
2023/11/03 05:50:11;;;;;;;56.10;2.50;;;;;;;;;;5053198;28;20469;-73
2023/11/03 05:52:38;;;;;;;56.20;2.70;;;;;;;;;;5053057;28;20463;-73
2023/11/03 05:55:06;;;;;;;56.07;2.30;;;;;;;;;;5052663;28;20778;-72
2023/11/03 05:57:33;;;;;;;55.63;2.40;;;;;;;;;;5053038;28;20821;-72
2023/11/03 06:00:00;;;;;;;56.07;2.60;;;;;;;;;;5052887;28;20485;-72
2023/11/03 06:02:27;;;;;;;56.10;2.60;;;;;;;;;;5052591;28;20453;-72
2023/11/03 06:04:55;;;;;;;56.27;2.80;;;;;;;;;;5052605;28;20448;-72
2023/11/03 06:07:23;;;;;;;56.47;2.97;;;;;;;;;;5052584;28;20460;-72
2023/11/03 06:09:51;;;;;;;56.10;2.47;;;;;;;;;;5052789;28;20783;-72
2023/11/03 06:12:18;;;;;;;55.87;2.50;;;;;;;;;;5052630;28;20457;-72
2023/11/03 06:14:45;;;;;;;56.20;2.90;;;;;;;;;;5052582;28;20455;-72
2023/11/03 06:17:12;;;;;;;55.83;2.40;;;;;;;;;;5052363;28;20451;-72
2023/11/03 06:19:39;;;;;;;56.20;2.50;;;;;;;;;;5052300;28;20503;-72
2023/11/03 06:22:07;;;;;;;55.90;2.30;;;;;;;;;;5052201;28;20448;-72
2023/11/03 06:24:36;;;;;;;55.87;2.30;;;;;;;;;;5052320;28;20456;-73
2023/11/03 06:27:03;;;;;;;56.10;2.50;;;;;;;;;;5052224;28;20859;-73
2023/11/03 06:29:30;;;;;;;55.67;2.40;;;;;;;;;;5051611;28;20464;-73
2023/11/03 06:31:57;;;;;;;56.07;2.37;;;;;;;;;;5052025;28;20460;-72
2023/11/03 06:34:24;;;;;;;55.97;2.60;;;;;;;;;;5051669;28;20958;-73
2023/11/03 06:36:51;;;;;;;56.07;2.60;;;;;;;;;;5052195;28;20441;-72
2023/11/03 06:39:20;;;;;;;56.03;2.33;;;;;;;;;;5052351;28;20448;-72
2023/11/03 06:41:48;;;;;;;56.00;2.23;;;;;;;;;;5043840;28;20823;-72
2023/11/03 06:44:15;;;;;;;55.87;2.20;;;;;;;;;;5051930;28;20440;-73
2023/11/03 06:46:43;;;;;;;55.97;2.10;;;;;;;;;;5051375;28;20520;-73
2023/11/03 06:49:10;;;;;;;55.97;2.60;;;;;;;;;;5051718;28;20453;-72
2023/11/03 06:51:37;;;;;;;56.00;2.50;;;;;;;;;;5051005;28;20858;-72
2023/11/03 06:54:05;;;;;;;55.97;2.30;;;;;;;;;;5050348;28;20453;-72
2023/11/03 06:56:32;;;;;;;55.90;2.07;;;;;;;;;;5048530;28;20498;-72
2023/11/03 06:59:00;;;;;;;55.87;2.30;;;;;;;;;;5051093;28;20464;-73
2023/11/03 07:01:28;;;;;;;55.80;2.30;;;;;;;;;;5050936;28;20484;-73
2023/11/03 07:03:55;;;;;;;56.00;2.47;;;;;;;;;;5044560;28;20976;-73
2023/11/03 07:06:22;;;;;;;56.07;2.50;;;;;;;;;;5051553;28;20504;-73
2023/11/03 07:08:49;;;;;;;55.80;2.33;;;;;;;;;;5050589;28;20816;-73
2023/11/03 07:11:17;;;;;;;55.77;2.50;;;;;;;;;;5051266;28;20567;-72
2023/11/03 07:13:44;;;;;;;56.97;4.37;;;;;;;;;;5050835;28;20459;-73
2023/11/03 07:16:13;;;;;;;57.70;3.13;;;;;;;;;;5051047;28;20460;-72
2023/11/03 07:18:41;;;;;;;55.90;2.40;;;;;;;;;;5051274;28;20539;-72
2023/11/03 07:21:11;;;;;;;55.97;2.80;;;;;;;;;;5051125;28;20975;-72
2023/11/03 07:23:39;;;;;;;55.83;2.80;;;;;;;;;;5051057;28;20449;-73
2023/11/03 07:26:06;;;;;;;55.77;2.20;;;;;;;;;;5050754;28;20481;-73
2023/11/03 07:28:33;;;;;;;55.97;2.67;;;;;;;;;;5050753;28;20448;-73
2023/11/03 07:31:03;;;;;;;55.90;2.50;;;;;;;;;;5051103;28;20841;-73
2023/11/03 07:33:31;;;;;;;55.87;2.80;;;;;;;;;;5051224;28;20459;-72
2023/11/03 07:35:59;;;;;;;55.87;2.50;;;;;;;;;;5050567;28;20500;-72
2023/11/03 07:38:28;;;;;;;56.00;2.27;;;;;;;;;;5050807;28;20456;-73
2023/11/03 07:40:55;;;;;;;55.57;2.40;;;;;;;;;;5050039;28;20480;-73
2023/11/03 07:43:22;;;;;;;55.97;2.33;;;;;;;;;;5050605;28;20465;-73
2023/11/03 07:45:50;;;;;;;55.87;2.50;;;;;;;;;;5050428;28;20493;-73
2023/11/03 07:48:18;;;;;;;56.10;2.50;;;;;;;;;;5051128;28;20538;-72
2023/11/03 07:50:46;;;;;;;55.90;2.30;;;;;;;;;;5050565;28;20476;-72
2023/11/03 07:53:13;;;;;;;55.97;2.40;;;;;;;;;;5050954;28;20465;-72
2023/11/03 07:55:40;;;;;;;55.97;2.43;;;;;;;;;;5050258;28;20803;-72
2023/11/03 07:58:08;;;;;;;55.77;2.27;;;;;;;;;;5050569;28;20944;-72
2023/11/03 08:00:35;;;;;;;55.90;2.33;;;;;;;;;;5050420;28;20856;-72
2023/11/03 08:03:05;;;;;;;55.80;2.30;;;;;;;;;;5050284;28;20453;-71
2023/11/03 08:05:33;;;;;;;56.07;2.50;;;;;;;;;;5050541;28;20460;-73
2023/11/03 08:08:02;;;;;;;55.97;2.53;;;;;;;;;;5055194;28;20555;-73
2023/11/03 08:10:29;;;;;;;56.20;3.00;;;;;;;;;;5054553;28;20468;-73
2023/11/03 08:12:57;;;;;;;55.87;2.50;;;;;;;;;;5054923;28;20455;-72
2023/11/03 08:15:24;;;;;;;55.97;2.37;;;;;;;;;;5054265;28;20548;-70
2023/11/03 08:17:51;;;;;;;55.83;2.50;;;;;;;;;;5054345;28;20451;-71
2023/11/03 08:20:18;;;;;;;55.80;2.30;;;;;;;;;;5054633;28;20940;-71
2023/11/03 08:22:47;;;;;;;55.67;2.03;;;;;;;;;;5054497;28;20473;-70
2023/11/03 08:25:15;;;;;;;56.10;2.60;;;;;;;;;;5054620;28;20452;-70
2023/11/03 08:27:42;;;;;;;56.00;2.20;;;;;;;;;;5054540;28;20490;-71
2023/11/03 08:30:10;;;;;;;55.87;2.00;;;;;;;;;;5054369;28;20474;-70
2023/11/03 08:32:37;;;;;;;55.60;2.10;;;;;;;;;;5054201;28;20449;-71
2023/11/03 08:35:05;;;;;;;56.00;2.40;;;;;;;;;;5054347;28;20445;-71
2023/11/03 08:37:32;;;;;;;56.10;2.47;;;;;;;;;;5054272;28;20453;-71
2023/11/03 08:39:59;;;;;;;55.80;2.20;;;;;;;;;;5053968;28;20474;-71
2023/11/03 08:42:28;;;;;;;55.87;2.17;;;;;;;;;;5054052;28;20449;-71
2023/11/03 08:44:55;;;;;;;55.90;2.20;;;;;;;;;;5054126;28;20839;-70
2023/11/03 08:47:22;;;;;;;55.90;2.00;;;;;;;;;;5054091;28;20937;-71
2023/11/03 08:49:49;;;;;;;55.80;1.97;;;;;;;;;;5053660;28;20474;-71
2023/11/03 08:52:17;;;;;;;56.00;2.07;;;;;;;;;;5054209;28;20546;-71
2023/11/03 08:54:44;;;;;;;55.67;2.10;;;;;;;;;;5053834;28;20461;-71
2023/11/03 08:57:12;;;;;;;56.67;2.23;;;;;;;;;;5054042;28;20844;-70
2023/11/03 08:59:41;;;;;;;55.77;2.10;;;;;;;;;;5052985;28;20487;-71
2023/11/03 09:02:08;;;;;;;55.87;2.03;;;;;;;;;;5053421;28;20549;-71
2023/11/03 09:04:35;;;;;;;55.40;1.80;;;;;;;;;;5051930;28;20955;-71
2023/11/03 09:07:03;;;;;;;60.27;2.57;;;;;;;;;;5053987;28;20522;-70
2023/11/03 09:09:30;;;;;;;55.80;2.10;;;;;;;;;;5053782;28;20445;-71
2023/11/03 09:11:58;;;;;;;55.93;1.73;;;;;;;;;;5053685;28;20537;-71
2023/11/03 09:14:25;;;;;;;55.70;1.93;;;;;;;;;;5053274;28;20448;-72
2023/11/03 09:16:54;;;;;;;55.60;2.20;;;;;;;;;;5053383;28;20486;-71
2023/11/03 09:19:21;;;;;;;55.77;2.00;;;;;;;;;;5052418;28;21860;-71
2023/11/03 09:21:48;;;;;;;55.73;2.00;;;;;;;;;;5053223;28;20478;-71
2023/11/03 09:24:16;;;;;;;55.53;2.20;;;;;;;;;;5052843;28;20450;-71
2023/11/03 09:26:43;;;;;;;55.87;2.20;;;;;;;;;;5052868;28;20487;-71
2023/11/03 09:29:11;;;;;;;55.63;2.03;;;;;;;;;;5053114;28;20948;-71
2023/11/03 09:31:38;;;;;;;55.80;2.10;;;;;;;;;;5052719;28;20488;-71
2023/11/03 09:34:07;;;;;;;55.73;2.20;;;;;;;;;;5053008;28;20998;-69
2023/11/03 09:36:34;;;;;;;55.70;1.90;;;;;;;;;;5051124;28;20480;-70
2023/11/03 09:39:04;;;;;;;55.60;1.90;;;;;;;;;;5052136;28;20982;-69
2023/11/03 09:41:32;;;;;;;55.70;2.00;;;;;;;;;;5052797;28;20515;-69
2023/11/03 09:44:00;;;;;;;55.87;2.13;;;;;;;;;;5052820;28;20832;-71
2023/11/03 09:46:28;;;;;;;55.70;1.90;;;;;;;;;;5052672;28;20546;-70
2023/11/03 09:48:55;;;;;;;55.80;2.20;;;;;;;;;;5052944;28;20466;-70
2023/11/03 09:51:24;;;;;;;55.67;1.80;;;;;;;;;;5052764;28;20525;-70
2023/11/03 09:53:53;;;;;;;55.80;2.33;;;;;;;;;;5051765;28;20479;-70
2023/11/03 09:56:20;;;;;;;56.30;2.00;;;;;;;;;;5052560;28;20448;-71
2023/11/03 09:58:49;;;;;;;55.77;1.97;;;;;;;;;;5052281;28;20505;-70
2023/11/03 10:01:16;;;;;;;55.37;1.90;;;;;;;;;;5052246;28;20487;-70
2023/11/03 10:03:44;;;;;;;55.57;1.70;;;;;;;;;;5052434;28;20551;-69
2023/11/03 10:06:11;;;;;;;55.70;2.00;;;;;;;;;;5052090;28;20465;-69
2023/11/03 10:08:42;;;;;;;56.00;2.20;;;;;;;;;;5052271;28;20900;-71
2023/11/03 10:11:10;;;;;;;55.83;1.83;;;;;;;;;;5045481;28;20478;-69
2023/11/03 10:13:37;;;;;;;55.10;2.97;;;;;;;;;;5052324;28;21032;-70
2023/11/03 10:16:06;;;;;;;55.83;1.90;;;;;;;;;;5051540;28;20460;-72
2023/11/03 10:18:33;;;;;;;56.10;2.10;;;;;;;;;;5052100;28;20834;-71
2023/11/03 10:21:01;;;;;;;55.47;2.00;;;;;;;;;;5051698;28;20475;-72
2023/11/03 10:23:28;;;;;;;55.87;2.27;;;;;;;;;;5051562;28;20460;-71
2023/11/03 10:25:56;;;;;;;55.47;1.83;;;;;;;;;;5051910;28;21016;-71
2023/11/03 10:28:26;;;;;;;55.77;1.77;;;;;;;;;;5052307;28;20516;-71
2023/11/03 10:30:56;;;;;;;55.90;2.20;;;;;;;;;;5050712;28;20488;-72
2023/11/03 10:33:24;;;;;;;55.47;1.97;;;;;;;;;;5051679;28;20940;-71
2023/11/03 10:35:52;;;;;;;55.73;1.87;;;;;;;;;;5050495;28;20961;-71
2023/11/03 10:38:20;;;;;;;54.87;1.60;;;;;;;;;;5052192;28;20498;-71
2023/11/03 10:40:47;;;;;;;55.30;1.73;;;;;;;;;;5051811;28;20484;-70
2023/11/03 10:43:15;;;;;;;55.90;2.00;;;;;;;;;;5051976;28;20450;-70
2023/11/03 10:45:47;;;;;;;56.07;2.00;;;;;;;;;;5051416;28;20458;-70
2023/11/03 10:48:17;;;;;;;55.77;2.00;;;;;;;;;;5051888;28;20487;-70
2023/11/03 10:50:46;;;;;;;55.80;1.93;;;;;;;;;;5052083;28;20476;-70
2023/11/03 10:53:16;;;;;;;55.63;1.90;;;;;;;;;;5051817;28;21051;-70
2023/11/03 10:55:49;;;;;;;56.07;2.00;;;;;;;;;;5051482;28;20480;-70
2023/11/03 10:58:17;;;;;;;55.17;1.83;;;;;;;;;;5051569;28;20466;-69
2023/11/03 11:00:45;;;;;;;55.40;1.70;;;;;;;;;;5050888;28;20488;-73
2023/11/03 11:03:15;;;;;;;55.70;2.27;;;;;;;;;;5051583;28;20551;-69
2023/11/03 11:05:47;;;;;;;56.10;1.80;;;;;;;;;;5051152;28;20553;-69
2023/11/03 11:08:14;;;;;;;55.70;1.60;;;;;;;;;;5051357;28;20478;-70
2023/11/03 11:10:42;;;;;;;55.10;1.77;;;;;;;;;;5051064;28;20495;-70
2023/11/03 11:13:15;;;;;;;55.00;1.80;;;;;;;;;;5051051;28;20457;-70
2023/11/03 11:15:50;;;;;;;56.00;2.00;;;;;;;;;;5051028;28;20467;-71
2023/11/03 11:18:17;;;;;;;55.70;1.90;;;;;;;;;;5051569;28;20440;-70
2023/11/03 11:20:53;;;;;;;55.80;1.80;;;;;;;;;;5051198;28;20474;-71
2023/11/03 11:23:23;;;;;;;55.50;1.63;;;;;;;;;;5050927;28;20460;-70
2023/11/03 11:25:50;;;;;;;55.83;1.80;;;;;;;;;;5051307;28;20475;-70
2023/11/03 11:28:31;;;;;;;55.90;1.90;;;;;;;;;;5051059;28;20488;-71
2023/11/03 11:31:00;;;;;;;55.77;1.80;;;;;;;;;;5051153;28;20467;-71
2023/11/03 11:33:29;;;;;;;55.27;1.93;;;;;;;;;;5050744;28;20515;-72
2023/11/03 11:35:56;;;;;;;55.67;1.63;;;;;;;;;;5050866;28;20453;-72
2023/11/03 11:38:26;;;;;;;55.80;1.90;;;;;;;;;;5051047;28;20448;-69
2023/11/03 11:40:55;;;;;;;55.63;2.20;;;;;;;;;;5050522;28;20464;-70
2023/11/03 11:43:24;;;;;;;55.67;1.80;;;;;;;;;;5050615;28;20449;-71
2023/11/03 11:45:53;;;;;;;55.37;1.83;;;;;;;;;;5050758;28;20916;-71
2023/11/03 11:48:23;;;;;;;56.00;1.80;;;;;;;;;;5050922;28;20944;-70
2023/11/03 11:50:50;;;;;;;55.77;1.70;;;;;;;;;;5050631;28;20525;-70
2023/11/03 11:53:17;;;;;;;55.33;2.03;;;;;;;;;;5050677;28;20462;-71
2023/11/03 11:55:44;;;;;;;55.27;1.80;;;;;;;;;;5050503;28;20463;-71
2023/11/03 11:58:12;;;;;;;55.67;1.97;;;;;;;;;;5051149;28;20817;-71
2023/11/03 12:00:40;;;;;;;55.27;1.90;;;;;;;;;;5051013;28;20482;-71
2023/11/03 12:03:09;;;;;;;55.67;1.80;;;;;;;;;;5050421;28;20464;-71
2023/11/03 12:05:37;;;;;;;55.27;1.70;;;;;;;;;;5050433;28;20456;-71
2023/11/03 12:08:05;;;;;;;55.37;1.80;;;;;;;;;;5050272;28;20488;-73
2023/11/03 12:10:33;;;;;;;55.37;1.80;;;;;;;;;;5050176;28;21038;-72
2023/11/03 12:13:00;;;;;;;55.77;1.83;;;;;;;;;;5050758;28;20450;-71
2023/11/03 12:15:28;;;;;;;55.90;1.73;;;;;;;;;;5050570;28;20806;-71
2023/11/03 12:17:55;;;;;;;55.80;1.90;;;;;;;;;;5050178;28;20452;-72
2023/11/03 12:20:22;;;;;;;54.97;1.80;;;;;;;;;;5050349;28;20891;-70
2023/11/03 12:22:51;;;;;;;55.80;1.63;;;;;;;;;;5050462;28;20456;-70
2023/11/03 12:25:18;;;;;;;55.77;1.80;;;;;;;;;;5050513;28;20457;-70
2023/11/03 12:27:53;;;;;;;55.57;1.87;;;;;;;;;;5050186;28;20496;-70
2023/11/03 12:30:21;;;;;;;55.63;1.70;;;;;;;;;;5050490;28;20480;-70
2023/11/03 12:32:49;;;;;;;55.67;1.70;;;;;;;;;;5050100;28;21004;-70
2023/11/03 12:35:16;;;;;;;55.50;1.70;;;;;;;;;;5049411;28;20456;-71
2023/11/03 12:37:44;;;;;;;55.67;1.90;;;;;;;;;;5050607;28;20452;-71
2023/11/03 12:40:22;;;;;;;55.23;1.60;;;;;;;;;;5050156;28;20837;-73
2023/11/03 12:42:49;;;;;;;55.53;1.80;;;;;;;;;;5049633;28;20457;-72
2023/11/03 12:45:18;;;;;;;55.27;1.90;;;;;;;;;;5049983;28;20455;-71
2023/11/03 12:47:46;;;;;;;55.10;1.77;;;;;;;;;;5050371;28;20490;-71
2023/11/03 12:50:17;;;;;;;55.50;1.87;;;;;;;;;;5045422;28;20490;-70
2023/11/03 12:52:49;;;;;;;55.53;1.73;;;;;;;;;;5050605;28;20449;-70
2023/11/03 12:55:20;;;;;;;54.80;1.80;;;;;;;;;;5053516;28;20523;-70
2023/11/03 12:57:48;;;;;;;55.47;1.83;;;;;;;;;;5053829;28;20538;-71
2023/11/03 13:00:16;;;;;;;55.50;1.97;;;;;;;;;;5054026;28;20579;-70
2023/11/03 13:02:43;;;;;;;55.90;2.10;;;;;;;;;;5053577;28;20541;-70
2023/11/03 13:05:11;;;;;;;55.37;1.70;;;;;;;;;;5053510;28;20532;-70
2023/11/03 13:07:38;;;;;;;54.60;1.73;;;;;;;;;;5053455;28;20483;-70
2023/11/03 13:10:06;;;;;;;55.77;1.90;;;;;;;;;;5053487;28;20876;-69
2023/11/03 13:12:34;;;;;;;55.17;1.80;;;;;;;;;;5053679;28;20448;-70
2023/11/03 13:15:03;;;;;;;56.17;2.20;;;;;;;;;;5053485;28;20464;-70
2023/11/03 13:17:31;;;;;;;55.27;1.80;;;;;;;;;;5054380;28;20449;-73
2023/11/03 13:19:58;;;;;;;55.43;1.93;;;;;;;;;;5053982;28;20962;-70
2023/11/03 13:22:25;;;;;;;55.23;1.60;;;;;;;;;;5053413;28;20946;-69
2023/11/03 13:24:53;;;;;;;55.40;1.70;;;;;;;;;;5053226;28;20448;-70
2023/11/03 13:27:20;;;;;;;55.67;1.90;;;;;;;;;;5053047;28;20460;-70
2023/11/03 13:29:47;;;;;;;54.93;1.67;;;;;;;;;;5053609;28;20470;-70
2023/11/03 13:32:18;;;;;;;55.47;1.70;;;;;;;;;;5053692;28;20450;-70
2023/11/03 13:34:45;;;;;;;55.17;1.60;;;;;;;;;;5053097;28;20456;-70
2023/11/03 13:37:13;;;;;;;55.23;1.70;;;;;;;;;;5052945;28;20455;-72
2023/11/03 13:39:40;;;;;;;55.77;1.50;;;;;;;;;;5052810;28;20479;-70
2023/11/03 13:42:08;;;;;;;55.80;2.00;;;;;;;;;;5053159;28;20478;-71
2023/11/03 13:44:35;;;;;;;56.27;2.60;;;;;;;;;;5053245;28;20458;-71
2023/11/03 13:47:02;;;;;;;55.50;2.00;;;;;;;;;;5052906;28;20479;-70
2023/11/03 13:49:31;;;;;;;55.80;2.33;;;;;;;;;;5052418;28;20486;-70
2023/11/03 13:51:58;;;;;;;55.50;2.00;;;;;;;;;;5052180;28;20471;-70
2023/11/03 13:54:25;;;;;;;55.57;1.90;;;;;;;;;;5053015;28;20448;-70
2023/11/03 13:56:52;;;;;;;55.43;1.73;;;;;;;;;;5052931;28;20448;-70
2023/11/03 13:59:21;;;;;;;55.80;1.90;;;;;;;;;;5052995;28;20440;-70
2023/11/03 14:01:48;;;;;;;55.37;1.80;;;;;;;;;;5052420;28;20457;-70
2023/11/03 14:04:15;;;;;;;55.67;1.87;;;;;;;;;;5052415;28;20459;-70
2023/11/03 14:06:44;;;;;;;55.47;2.07;;;;;;;;;;5052378;28;20452;-70
2023/11/03 14:09:11;;;;;;;55.70;1.70;;;;;;;;;;5052390;28;20488;-69
2023/11/03 14:11:40;;;;;;;55.87;1.80;;;;;;;;;;5051755;28;20477;-70
2023/11/03 14:14:07;;;;;;;55.33;1.87;;;;;;;;;;5052331;28;20462;-70
2023/11/03 14:16:34;;;;;;;55.87;2.00;;;;;;;;;;5052228;28;20544;-70
2023/11/03 14:19:01;;;;;;;55.77;2.07;;;;;;;;;;5052042;28;20461;-71
2023/11/03 14:21:29;;;;;;;56.07;2.00;;;;;;;;;;5052082;28;20583;-70
2023/11/03 14:23:57;;;;;;;55.80;2.10;;;;;;;;;;5051933;28;20515;-71
2023/11/03 14:26:24;;;;;;;55.47;1.90;;;;;;;;;;5049938;28;20979;-70
2023/11/03 14:28:51;;;;;;;55.17;2.27;;;;;;;;;;5051858;28;20494;-70
2023/11/03 14:31:18;;;;;;;56.10;2.00;;;;;;;;;;5051766;28;20472;-70
2023/11/03 14:33:46;;;;;;;55.77;1.87;;;;;;;;;;5051822;28;20456;-72